x

West Santa Barbara 38 Nm West Of Santa Barbara, Ca (46054) Wave Buoy

8:50 - Thu 5th May 2016 All times are PDT. -7 hours from GMT.

  • Sig Wave height 5.9ft
  • Swell Direction
  • Peak Period 11s
  • Average Period 10s
  • Wind
    4mph, 9mph gusts
  • Sea Temp 57°f
  • Air Temp 56°f
  • Sea Pressure 1012.2mb
  • West Santa Barbara  38 Nm West Of Santa Barbara, Ca
  • West Santa Barbara  38 Nm West Of Santa Barbara, Ca

More Historic Weather Station data

Upgrade to MSW Pro to gain access to the past 30 days of data for over 8000 Wavebouys and Weather Stations around the globe.

Join Pro

Comparision Forecast

View Surf forecast
   
jeu. 05/05 8:50 6ft 11s 10s 4 9 mph 1012.2mb 57f 56f
7:50 7ft 10s 10s 7 9 mph 1012mb 57f 56f
6:50 5.5ft 11s 10s 2 4 mph 1011.8mb 56f 57f
5:50 5ft 10s 9s 2 4 mph 1011.7mb 57f 56f
4:50 4ft 11s 9s 2
mph
1011.9mb 57f 56f
3:50 4ft 11s 9s 2 4 mph 1012.2mb 57f 56f
2:50 4.5ft 16s 10s 4
mph
1012.4mb 57f 56f
1:50 4ft 12s 10s 4 7 mph 1012.8mb 57f 56f
12:50 4.5ft 11s 10s 7
mph
1013.2mb 57f 56f
mer. 05/04 11:50 3.5ft 11s 9s 4 7 mph 1013.3mb 57f 57f
10:50 3.5ft 12s 10s 4 7 mph 1013.4mb 57f 57f
9:50 3.5ft 13s 10s 4
mph
1013mb 57f 57f
8:50 4ft 11s 9s 2
mph
1012.7mb 57f 57f
7:50 4ft 10s 9s 4 7 mph 1012.2mb 58f 57f
6:50 3.5ft 12s 9s 7
mph
1012mb 58f 58f
5:50 4ft 11s 9s 7 9 mph 1012mb 58f 58f
4:50 3.5ft 12s 9s 7 9 mph 1012.5mb 58f 57f
3:50 4ft 11s 9s 7
mph
1013mb 58f 57f
2:50 3.5ft 11s 9s 4 7 mph 1013.7mb 58f 57f
1:50 4.5ft 12s 9s 4 7 mph 1014.2mb 58f 57f
12:50 4.5ft 11s 10s 4 7 mph 1014.5mb 58f 57f
11:50 4.5ft 12s 10s 4 7 mph 1014.2mb 57f 56f
10:50 5ft 12s 10s 7 9 mph 1014mb 56f 56f
9:50 4.5ft 12s 10s 7
mph
1013.6mb 56f 55f
8:50 6ft 13s 10s 7 11 mph 1013.4mb 56f 55f
7:50 5ft 12s 9s 2
mph
1013.7mb 56f 55f
6:50 5.5ft 12s 9s 9
mph
1013.5mb 56f 55f
5:50 5ft 13s 9s 13 18 mph 1012.4mb 56f 54f
4:50 4.5ft 13s 7s 4 7 mph 1011.4mb 56f 55f
3:50 5ft 13s 7s 9 11 mph 1012mb 56f 55f
2:50 5ft 13s 7s 16 18 mph 1012.9mb 56f 54f
1:50 4.5ft 13s 7s 16 18 mph 1013.5mb 56f 53f
12:50 5ft 13s 7s 16 18 mph 1013.5mb 56f 53f
mar. 05/03 11:50 6ft 13s 7s 16 20 mph 1013.6mb 56f 54f
10:50 6ft 12s 6s 18 20 mph 1012.9mb 56f 54f
9:50 6.5ft 12s 7s 20 22 mph 1012.7mb 56f 54f
8:50 5.5ft 12s 6s 22 27 mph 1012mb 56f 54f
7:50 6.5ft 13s 7s 22 27 mph 1011.9mb 56f 54f
6:50 6ft 13s 6s 20 27 mph 1012.4mb 56f 55f
5:50 6ft 13s 6s 22 25 mph 1013.1mb 57f 55f
4:50 6ft 12s 7s 22 25 mph 1013.3mb 57f 55f
3:50 6ft 12s 7s 20 25 mph 1013.7mb 57f 55f
2:50 5ft 12s 7s 18 20 mph 1014.5mb 57f 55f
1:50 6ft 13s 9s 16 20 mph 1014.9mb 57f 55f
12:50 5.5ft 14s 9s 13 18 mph 1015.2mb 57f 54f
11:50 6ft 14s 9s 11 13 mph 1015.4mb 57f 54f
10:50 6.5ft 14s 9s 11 13 mph 1015.6mb 57f 54f
9:50 5ft 14s 7s 9 11 mph 1015.4mb 57f 54f
8:50 6.5ft 14s 8s 13 16 mph 1015.1mb 57f 53f
7:50 6ft 14s 9s 16 18 mph 1014.7mb 57f 53f
5:50 6.5ft 14s 8s 4 7 mph 1013.3mb 57f 56f
4:50 6ft 15s 8s 13 16 mph 1013.4mb 56f 54f
3:50 5ft 15s 7s 16 18 mph 1013.4mb 57f 55f
2:50 5.5ft 15s 7s 16 20 mph 1013.3mb 57f 56f
1:50 5.5ft 13s 7s 18 20 mph 1013.9mb 57f 56f
12:50 4.5ft 16s 6s 18 20 mph 1014.3mb 57f 56f
lun. 05/02 11:50 5.5ft 15s 6s 20 25 mph 1014.2mb 56f 56f
10:50 5ft 13s 6s 18 22 mph 1014.6mb 56f 56f
9:50 5ft 13s 5s 22 25 mph 1014.9mb 56f 55f
8:50 5ft 13s 6s 22 27 mph 1014.7mb 57f 56f
7:50 5ft 11s 6s 22 27 mph 1014.8mb 57f 56f
6:50 5ft 13s 8s 18 20 mph 1014.9mb 57f 56f
5:50 4.5ft 13s 8s 13 16 mph 1015.3mb 57f 56f
4:50 4.5ft 13s 9s 13 16 mph 1015.4mb 57f 56f
3:50 4.5ft 15s 9s 11 13 mph 1015.8mb 57f 56f
2:50 4.5ft 13s 9s 9 11 mph 1016.6mb 57f 55f
1:50 5ft 13s 9s 7
mph
1017.1mb 58f 55f
12:50 4.5ft 15s 9s 4 7 mph 1017.7mb 56f 55f
11:50 4.5ft 13s 9s 4 7 mph 1018.1mb 55f 55f
10:50 4.5ft 13s 9s  -  2 mph 1017.9mb 55f 56f
9:50 4.5ft 14s 9s 2 4 mph 1017.8mb 55f 54f
8:50 5ft 14s 9s 7 9 mph 1017.4mb 55f 54f
7:50 5ft 15s 9s 7 9 mph 1016.8mb 55f 54f
6:50 4.5ft 13s 8s 7 9 mph 1016.1mb 55f 55f
5:50 4.5ft 15s 9s 4 7 mph 1015.5mb 55f 55f
4:50 5.5ft 14s 9s 4 7 mph 1015.6mb 55f 55f
3:50 5ft 10s 9s 4 7 mph 1015.6mb 55f 55f
2:50 5ft 14s 9s 2 4 mph 1015.5mb 55f 55f
1:50 5ft 14s 8s 4 7 mph 1015.8mb 55f 55f
12:50 6ft 10s 9s 2 4 mph 1015.6mb 55f 55f
dim. 05/01 11:50 5.5ft 10s 8s 2 4 mph 1015.5mb 55f 54f
10:50 6ft 10s 8s 2 4 mph 1015.3mb 55f 54f
9:50 6ft 8s 8s 4
mph
1015mb 55f 54f
8:50 6.5ft 10s 8s 7 9 mph 1014mb 55f 54f
7:50 5.5ft 11s 8s 2 4 mph 1013.3mb 54f 55f
6:50 5.5ft 10s 8s 4 7 mph 1012.9mb 54f 55f
5:50 6ft 10s 8s 4 7 mph 1012.7mb 54f 55f